Time;durP1;ratioP1;P1;durP2;ratioP2;P2;SDS_P1;SDS_P2;PMS_P1;PMS_P2;Temp;Humidity;BMP_temperature;BMP_pressure;BME280_temperature;BME280_humidity;BME280_pressure;Samples;Min_cycle;Max_cycle;Signal;HPM_P1;HPM_P2
2022/04/15 00:00:10;;;;;;;2.45;2.25;;;8.40;99.90;;;;;;5026333;28;20075;-83
2022/04/15 00:02:36;;;;;;;3.80;2.33;;;8.40;99.90;;;;;;5044871;28;20059;-84
2022/04/15 00:05:02;;;;;;;7.57;2.25;;;8.40;99.90;;;;;;5044333;28;20053;-83
2022/04/15 00:07:28;;;;;;;4.78;2.78;;;8.40;99.90;;;;;;5044861;28;20411;-83
2022/04/15 00:09:53;;;;;;;3.53;2.03;;;8.40;99.90;;;;;;5044614;28;20045;-83
2022/04/15 00:12:27;;;;;;;2.40;2.20;;;8.40;99.90;;;;;;5041987;28;20505;-83
2022/04/15 00:14:54;;;;;;;2.75;2.17;;;8.40;99.90;;;;;;5044304;28;20716;-83
2022/04/15 00:17:20;;;;;;;1.60;1.50;;;8.40;99.90;;;;;;5043021;28;20037;-83
2022/04/15 00:19:47;;;;;;;3.17;2.20;;;8.40;99.90;;;;;;5026166;28;20118;-83
2022/04/15 00:22:13;;;;;;;2.42;1.52;;;8.30;99.90;;;;;;5026420;28;20052;-83
2022/04/15 00:24:38;;;;;;;1.83;1.73;;;8.30;99.90;;;;;;5026237;28;20411;-84
2022/04/15 00:27:04;;;;;;;1.65;1.55;;;8.30;99.90;;;;;;5024982;28;20580;-83
2022/04/15 00:29:29;;;;;;;3.58;1.98;;;8.30;99.90;;;;;;5043898;28;20060;-84
2022/04/15 00:31:55;;;;;;;2.17;2.08;;;8.30;99.90;;;;;;5043789;28;20044;-83
2022/04/15 00:34:21;;;;;;;11.38;3.05;;;8.30;99.90;;;;;;5044029;28;20049;-83
2022/04/15 00:36:46;;;;;;;2.83;2.63;;;8.30;99.90;;;;;;5043951;28;20041;-83
2022/04/15 00:39:12;;;;;;;7.85;2.70;;;8.20;99.90;;;;;;5043701;28;20574;-83
2022/04/15 00:41:42;;;;;;;3.15;2.10;;;8.30;99.90;;;;;;5042218;28;20041;-83
2022/04/15 00:44:07;;;;;;;9.15;2.42;;;8.30;99.90;;;;;;5043064;28;20044;-83
2022/04/15 00:46:33;;;;;;;2.10;1.92;;;8.20;99.90;;;;;;5038106;28;20047;-83
2022/04/15 00:48:58;;;;;;;2.30;2.10;;;8.20;99.90;;;;;;5042943;28;20500;-83
2022/04/15 00:51:24;;;;;;;4.85;1.92;;;8.20;99.90;;;;;;5043411;28;20805;-83
2022/04/15 00:53:50;;;;;;;2.60;2.50;;;8.20;99.90;;;;;;5043906;28;20048;-83
2022/04/15 00:56:16;;;;;;;2.80;2.22;;;8.20;99.90;;;;;;5042866;28;20083;-83
2022/04/15 00:58:43;;;;;;;4.88;3.25;;;8.20;99.90;;;;;;5043974;28;20060;-83
2022/04/15 01:01:09;;;;;;;4.72;2.60;;;8.20;99.90;;;;;;5043185;28;20102;-83
2022/04/15 01:03:36;;;;;;;1.73;1.63;;;8.20;99.90;;;;;;5043724;28;20730;-83
2022/04/15 01:06:06;;;;;;;2.15;1.95;;;8.20;99.90;;;;;;5041782;28;20053;-84
2022/04/15 01:08:36;;;;;;;1.77;1.70;;;8.20;99.90;;;;;;5043704;28;20080;-83
2022/04/15 01:11:03;;;;;;;2.28;1.55;;;8.20;99.90;;;;;;5042045;28;20036;-83
2022/04/15 01:13:32;;;;;;;2.00;1.67;;;8.30;99.90;;;;;;5035769;28;20053;-83
2022/04/15 01:15:58;;;;;;;1.67;1.58;;;8.30;99.90;;;;;;5023943;28;20060;-83
2022/04/15 01:18:24;;;;;;;2.33;1.85;;;8.30;99.90;;;;;;5022986;28;20315;-83
2022/04/15 01:20:52;;;;;;;2.35;2.15;;;8.30;99.90;;;;;;5023533;28;20415;-83
2022/04/15 01:23:18;;;;;;;1.85;1.75;;;8.30;99.90;;;;;;5036780;28;20049;-83
2022/04/15 01:25:44;;;;;;;3.35;3.05;;;8.30;99.90;;;;;;5042601;28;20041;-83
2022/04/15 01:28:10;;;;;;;3.95;2.05;;;8.30;99.90;;;;;;5017328;28;20041;-84
2022/04/15 01:30:35;;;;;;;2.30;1.75;;;8.30;99.90;;;;;;5022880;28;20546;-83
2022/04/15 01:33:03;;;;;;;2.33;1.77;;;8.30;99.90;;;;;;5038323;28;20407;-83
2022/04/15 01:35:28;;;;;;;2.60;1.50;;;8.40;99.90;;;;;;5023416;28;20053;-83
2022/04/15 01:37:57;;;;;;;1.73;1.52;;;8.40;99.90;;;;;;5022999;28;20049;-82
2022/04/15 01:40:22;;;;;;;1.30;1.30;;;8.40;99.90;;;;;;5023145;28;20487;-83
2022/04/15 01:42:48;;;;;;;1.98;1.70;;;8.40;99.90;;;;;;5021689;28;20041;-83
2022/04/15 01:45:14;;;;;;;2.67;2.47;;;8.40;99.90;;;;;;5018630;28;20168;-83
2022/04/15 01:47:40;;;;;;;1.40;1.38;;;8.40;99.90;;;;;;5018768;28;20053;-83
2022/04/15 01:50:07;;;;;;;2.08;1.98;;;8.40;99.90;;;;;;5002479;28;20042;-83
2022/04/15 01:52:33;;;;;;;1.58;1.45;;;8.50;99.90;;;;;;5017335;28;20187;-83
2022/04/15 01:54:59;;;;;;;0.98;0.98;;;8.50;99.90;;;;;;5043064;28;20499;-83
2022/04/15 01:57:24;;;;;;;2.17;1.73;;;8.50;99.90;;;;;;5041530;28;20561;-82
2022/04/15 01:59:50;;;;;;;6.07;1.92;;;8.50;99.90;;;;;;5042297;28;20111;-83
2022/04/15 02:02:16;;;;;;;1.48;1.40;;;8.60;99.90;;;;;;5042332;28;20067;-83
2022/04/15 02:04:42;;;;;;;2.70;1.83;;;8.50;99.90;;;;;;5042326;28;20053;-83
2022/04/15 02:07:07;;;;;;;1.52;1.42;;;8.60;99.90;;;;;;5024016;28;20048;-83
2022/04/15 02:09:33;;;;;;;4.00;2.28;;;8.60;99.90;;;;;;5042372;28;20041;-83
2022/04/15 02:11:59;;;;;;;6.93;1.75;;;8.60;99.90;;;;;;5041598;28;20145;-83
2022/04/15 02:14:25;;;;;;;2.80;1.65;;;8.60;99.90;;;;;;5042771;28;20056;-82
2022/04/15 02:16:54;;;;;;;9.93;2.22;;;8.60;99.90;;;;;;5041989;28;20492;-83
2022/04/15 02:19:21;;;;;;;2.42;1.88;;;8.60;99.90;;;;;;5042052;28;20049;-83
2022/04/15 02:21:47;;;;;;;1.52;1.45;;;8.60;99.90;;;;;;5041977;28;20041;-83
2022/04/15 02:24:14;;;;;;;3.38;1.63;;;8.60;99.90;;;;;;5021666;28;20063;-83
2022/04/15 02:26:39;;;;;;;2.45;1.92;;;8.60;99.90;;;;;;5021700;28;20052;-83
2022/04/15 02:29:05;;;;;;;2.13;1.80;;;8.60;99.90;;;;;;5021941;28;20041;-83
2022/04/15 02:31:30;;;;;;;0.95;0.93;;;8.70;99.90;;;;;;5022270;28;20124;-82
2022/04/15 02:33:56;;;;;;;1.33;1.10;;;8.60;99.90;;;;;;5022771;28;20071;-82
2022/04/15 02:36:21;;;;;;;1.30;1.20;;;8.70;99.90;;;;;;5021467;28;20045;-83
2022/04/15 02:38:47;;;;;;;3.13;1.85;;;8.60;99.90;;;;;;5023905;28;20117;-83
2022/04/15 02:41:13;;;;;;;2.08;1.80;;;8.70;99.90;;;;;;5040057;28;20048;-83
2022/04/15 02:43:39;;;;;;;2.17;1.25;;;8.70;99.90;;;;;;5041799;28;20041;-82
2022/04/15 02:46:07;;;;;;;1.48;1.38;;;8.70;99.90;;;;;;5037264;28;20112;-82
2022/04/15 02:48:33;;;;;;;5.20;1.83;;;8.70;99.90;;;;;;5041944;28;20037;-83
2022/04/15 02:50:59;;;;;;;17.95;2.42;;;8.70;99.90;;;;;;5042504;28;20033;-83
2022/04/15 02:53:25;;;;;;;3.70;2.10;;;8.70;99.90;;;;;;5041341;28;20041;-83
2022/04/15 02:55:52;;;;;;;1.90;1.80;;;8.70;99.90;;;;;;5041240;28;20045;-83
2022/04/15 02:58:18;;;;;;;1.48;1.38;;;8.70;99.90;;;;;;5028750;28;20075;-83
2022/04/15 03:00:44;;;;;;;18.88;2.97;;;8.70;99.90;;;;;;5021409;28;20042;-83
2022/04/15 03:03:10;;;;;;;2.28;2.08;;;8.70;99.90;;;;;;5023128;28;20064;-83
2022/04/15 03:05:36;;;;;;;2.28;2.10;;;8.70;99.90;;;;;;5041591;28;20087;-84
2022/04/15 03:08:02;;;;;;;2.00;1.80;;;8.70;99.90;;;;;;5023833;28;20130;-83
2022/04/15 03:10:27;;;;;;;2.97;1.75;;;8.70;99.90;;;;;;5040985;28;20033;-83
2022/04/15 03:12:54;;;;;;;1.98;1.77;;;8.70;99.90;;;;;;5041546;28;20311;-83
2022/04/15 03:15:19;;;;;;;2.80;1.77;;;8.70;99.90;;;;;;5023632;28;20057;-83
2022/04/15 03:17:45;;;;;;;7.18;3.53;;;8.70;99.90;;;;;;5023780;28;20665;-83
2022/04/15 03:20:11;;;;;;;2.75;2.08;;;8.70;99.90;;;;;;5041724;28;20045;-83
2022/04/15 03:22:37;;;;;;;4.10;2.55;;;8.70;99.90;;;;;;5039941;28;20037;-83
2022/04/15 03:25:04;;;;;;;2.85;2.05;;;8.70;99.90;;;;;;5023295;28;20506;-83
2022/04/15 03:27:30;;;;;;;8.63;2.47;;;8.70;99.90;;;;;;5041061;28;20037;-84
2022/04/15 03:29:55;;;;;;;1.67;1.60;;;8.60;99.90;;;;;;5023845;28;20048;-83
2022/04/15 03:32:21;;;;;;;2.40;1.50;;;8.70;99.90;;;;;;5041600;28;20073;-83
2022/04/15 03:34:46;;;;;;;1.60;1.50;;;8.70;99.90;;;;;;5026221;28;20124;-83
2022/04/15 03:37:12;;;;;;;10.07;1.42;;;8.70;99.90;;;;;;5003676;28;20496;-82
2022/04/15 03:39:37;;;;;;;1.02;1.02;;;8.70;99.90;;;;;;5003489;28;20045;-83
2022/04/15 03:42:04;;;;;;;1.30;1.20;;;8.60;99.90;;;;;;5020686;28;20133;-83
2022/04/15 03:44:30;;;;;;;4.15;1.90;;;8.60;99.90;;;;;;5021607;28;20137;-83
2022/04/15 03:46:55;;;;;;;1.80;1.70;;;8.60;99.90;;;;;;5018633;28;20656;-83
2022/04/15 03:49:21;;;;;;;1.33;1.23;;;8.70;99.90;;;;;;5001752;28;20100;-83
2022/04/15 03:51:46;;;;;;;3.17;1.42;;;8.60;99.90;;;;;;5019143;28;20054;-83
2022/04/15 03:54:12;;;;;;;1.65;0.73;;;8.60;99.90;;;;;;5005398;28;20042;-83
2022/04/15 03:56:38;;;;;;;2.20;1.70;;;8.60;99.90;;;;;;5005571;28;20327;-83
2022/04/15 03:59:03;;;;;;;1.63;1.52;;;8.70;99.90;;;;;;5025722;28;20049;-82
2022/04/15 04:01:30;;;;;;;0.85;0.85;;;8.60;99.90;;;;;;5007403;28;20047;-83
2022/04/15 04:03:55;;;;;;;0.82;0.82;;;8.60;99.90;;;;;;5024997;28;20045;-83
2022/04/15 04:06:21;;;;;;;4.28;2.25;;;8.60;99.90;;;;;;5024814;28;20046;-83
2022/04/15 04:08:50;;;;;;;11.38;2.50;;;8.60;99.90;;;;;;5024699;28;20520;-83
2022/04/15 04:11:19;;;;;;;2.40;2.22;;;8.60;99.90;;;;;;5023633;28;20116;-83
2022/04/15 04:13:45;;;;;;;1.80;1.70;;;8.70;99.90;;;;;;5042370;28;20049;-83
2022/04/15 04:16:13;;;;;;;3.00;2.22;;;8.70;99.90;;;;;;5044274;28;20136;-83
2022/04/15 04:18:43;;;;;;;3.45;1.92;;;8.60;99.90;;;;;;5044764;28;20049;-82
2022/04/15 04:21:09;;;;;;;11.25;3.40;;;8.60;99.90;;;;;;5044469;28;20045;-83
2022/04/15 04:23:35;;;;;;;2.38;2.08;;;8.70;99.90;;;;;;5043851;28;20041;-83
2022/04/15 04:26:01;;;;;;;3.47;2.28;;;8.60;99.90;;;;;;5043153;28;20037;-83
2022/04/15 04:28:27;;;;;;;3.58;1.90;;;8.60;99.90;;;;;;5044805;28;20047;-83
2022/04/15 04:30:52;;;;;;;2.65;2.45;;;8.60;99.90;;;;;;5043911;28;20048;-83
2022/04/15 04:33:19;;;;;;;2.08;1.98;;;8.60;99.90;;;;;;5044127;28;20068;-82
2022/04/15 04:35:44;;;;;;;5.70;2.92;;;8.60;99.90;;;;;;5044040;28;20041;-82
2022/04/15 04:38:10;;;;;;;3.55;2.55;;;8.60;99.90;;;;;;5044143;28;20048;-83
2022/04/15 04:40:36;;;;;;;2.60;2.38;;;8.60;99.90;;;;;;5042845;28;20048;-83
2022/04/15 04:43:04;;;;;;;5.43;3.80;;;8.60;99.90;;;;;;5043587;28;20102;-83
2022/04/15 04:45:31;;;;;;;6.45;5.47;;;8.60;99.90;;;;;;5038188;28;20120;-83
2022/04/15 04:47:57;;;;;;;6.38;4.38;;;8.60;99.90;;;;;;5039911;28;20057;-83
2022/04/15 04:50:22;;;;;;;5.22;4.20;;;8.60;99.90;;;;;;5036800;28;20033;-82
2022/04/15 04:52:49;;;;;;;7.80;4.47;;;8.60;99.90;;;;;;5025641;28;20081;-83
2022/04/15 04:55:16;;;;;;;5.55;5.10;;;8.60;99.90;;;;;;5041297;28;20529;-83
2022/04/15 04:57:42;;;;;;;7.30;4.00;;;8.60;99.90;;;;;;5044245;28;20037;-83
2022/04/15 05:00:13;;;;;;;8.18;5.10;;;8.60;99.90;;;;;;5042439;28;20041;-83
2022/04/15 05:02:40;;;;;;;4.22;3.80;;;8.60;99.90;;;;;;5024863;28;20066;-84
2022/04/15 05:05:06;;;;;;;3.60;2.33;;;8.60;99.90;;;;;;5043807;28;20086;-84
2022/04/15 05:07:32;;;;;;;4.75;4.25;;;8.60;99.90;;;;;;5025781;28;20037;-82
2022/04/15 05:09:58;;;;;;;3.78;3.45;;;8.60;99.90;;;;;;5024564;28;20051;-82
2022/04/15 05:12:23;;;;;;;4.03;3.35;;;8.50;99.90;;;;;;5043357;28;20132;-83
2022/04/15 05:14:49;;;;;;;3.20;2.97;;;8.50;99.90;;;;;;5022354;28;20065;-84
2022/04/15 05:17:15;;;;;;;3.33;2.53;;;8.60;99.90;;;;;;5040205;28;20052;-83
2022/04/15 05:19:41;;;;;;;4.82;4.43;;;8.60;99.90;;;;;;5043537;28;20051;-83
2022/04/15 05:22:08;;;;;;;3.20;3.00;;;8.60;99.90;;;;;;5043026;28;20045;-83
2022/04/15 05:24:33;;;;;;;2.88;2.67;;;8.50;99.90;;;;;;5042865;28;20049;-84
2022/04/15 05:26:59;;;;;;;4.43;4.03;;;8.50;99.90;;;;;;5042806;28;20052;-83
2022/04/15 05:29:25;;;;;;;3.90;3.45;;;8.50;99.90;;;;;;5042825;28;20483;-83
2022/04/15 05:31:50;;;;;;;2.25;2.15;;;8.50;99.90;;;;;;5029417;28;20045;-84
2022/04/15 05:34:16;;;;;;;4.57;4.18;;;8.50;99.90;;;;;;5022928;28;20522;-85
2022/04/15 05:36:42;;;;;;;2.05;1.90;;;8.50;99.90;;;;;;5025297;28;20036;-84
2022/04/15 05:39:07;;;;;;;2.55;1.70;;;8.40;99.90;;;;;;5041616;28;20102;-83
2022/04/15 05:41:33;;;;;;;1.80;1.70;;;8.40;99.90;;;;;;5032811;28;20488;-83
2022/04/15 05:43:58;;;;;;;2.03;1.83;;;8.40;99.90;;;;;;5021813;28;20045;-84
2022/04/15 05:46:27;;;;;;;2.30;1.88;;;8.40;99.90;;;;;;5008178;28;20133;-83
2022/04/15 05:48:53;;;;;;;1.90;1.80;;;8.40;99.90;;;;;;5002746;28;20734;-83
2022/04/15 05:51:19;;;;;;;1.35;1.25;;;8.40;99.90;;;;;;5002308;28;20046;-83
2022/04/15 05:53:45;;;;;;;1.70;1.35;;;8.40;99.90;;;;;;5001989;28;20459;-82
2022/04/15 05:56:11;;;;;;;2.80;2.60;;;8.40;99.90;;;;;;4984059;28;20050;-83
2022/04/15 05:58:37;;;;;;;1.88;1.77;;;8.40;99.90;;;;;;5003048;28;20065;-82
2022/04/15 06:01:05;;;;;;;2.80;2.35;;;8.40;99.90;;;;;;5021689;28;20041;-83
2022/04/15 06:03:32;;;;;;;5.20;2.35;;;8.40;99.90;;;;;;5022515;28;20511;-83
2022/04/15 06:05:59;;;;;;;3.25;2.95;;;8.40;99.90;;;;;;5022895;28;20037;-82
2022/04/15 06:08:24;;;;;;;2.00;1.90;;;8.40;99.90;;;;;;5022176;28;20068;-83
2022/04/15 06:10:50;;;;;;;1.75;1.63;;;8.40;99.90;;;;;;5021488;28;20053;-83
2022/04/15 06:13:19;;;;;;;2.10;2.00;;;8.40;99.90;;;;;;5035386;28;20145;-83
2022/04/15 06:15:52;;;;;;;4.30;2.35;;;8.40;99.90;;;;;;5024561;28;20671;-83
2022/04/15 06:18:19;;;;;;;1.63;1.50;;;8.40;99.90;;;;;;5041609;28;20045;-83
2022/04/15 06:20:45;;;;;;;3.03;2.25;;;8.40;99.90;;;;;;5041072;28;20123;-83
2022/04/15 06:23:11;;;;;;;1.65;1.55;;;8.40;99.90;;;;;;5041404;28;20165;-82
2022/04/15 06:25:36;;;;;;;2.13;1.42;;;8.40;99.90;;;;;;5041437;28;20087;-82
2022/04/15 06:28:02;;;;;;;1.10;1.10;;;8.50;99.90;;;;;;5041263;28;20040;-82
2022/04/15 06:30:28;;;;;;;1.02;1.02;;;8.50;99.90;;;;;;5042400;28;20438;-82
2022/04/15 06:32:53;;;;;;;1.35;1.25;;;8.50;99.90;;;;;;5041658;28;20431;-82
2022/04/15 06:35:19;;;;;;;1.33;1.25;;;8.50;99.90;;;;;;5040902;28;20120;-83
2022/04/15 06:37:45;;;;;;;1.88;1.05;;;8.50;99.90;;;;;;5042171;28;20049;-82
2022/04/15 06:40:11;;;;;;;1.10;1.10;;;8.50;99.90;;;;;;5040743;28;20086;-82
2022/04/15 06:42:37;;;;;;;8.43;2.22;;;8.50;99.90;;;;;;5023789;28;20076;-82
2022/04/15 06:45:04;;;;;;;1.50;1.48;;;8.50;99.90;;;;;;5038788;28;20659;-83
2022/04/15 06:47:29;;;;;;;1.52;1.42;;;8.50;99.90;;;;;;5022315;28;20033;-82
2022/04/15 06:49:55;;;;;;;9.10;1.77;;;8.50;99.90;;;;;;5021752;28;20045;-82
2022/04/15 06:52:21;;;;;;;1.95;1.75;;;8.50;99.90;;;;;;5021744;28;20053;-83
2022/04/15 06:54:47;;;;;;;2.33;2.05;;;8.50;99.90;;;;;;5021503;28;20060;-83
2022/04/15 06:57:12;;;;;;;1.90;1.80;;;8.50;99.90;;;;;;5036472;28;20057;-83
2022/04/15 06:59:38;;;;;;;3.58;3.08;;;8.50;99.90;;;;;;5021877;28;20041;-83
2022/04/15 07:02:05;;;;;;;3.33;3.03;;;8.50;99.90;;;;;;5039224;28;20044;-83
2022/04/15 07:04:32;;;;;;;2.75;2.65;;;8.50;99.90;;;;;;5041622;28;20059;-83
2022/04/15 07:06:58;;;;;;;3.92;3.63;;;8.50;99.90;;;;;;5024440;28;20053;-83
2022/04/15 07:09:23;;;;;;;3.53;3.25;;;8.50;99.90;;;;;;5023356;28;20048;-82
2022/04/15 07:11:49;;;;;;;10.57;3.33;;;8.50;99.90;;;;;;5022677;28;20515;-82
2022/04/15 07:14:15;;;;;;;3.17;2.90;;;8.50;99.90;;;;;;5040618;28;20414;-82
2022/04/15 07:16:40;;;;;;;3.03;2.83;;;8.60;99.90;;;;;;5041279;28;20547;-82
2022/04/15 07:19:07;;;;;;;4.25;3.25;;;8.60;99.90;;;;;;5023460;28;20156;-82
2022/04/15 07:21:33;;;;;;;4.30;3.90;;;8.60;99.90;;;;;;5022989;28;20504;-83
2022/04/15 07:23:59;;;;;;;4.90;4.50;;;8.60;99.90;;;;;;5041879;28;20107;-82
2022/04/15 07:26:25;;;;;;;6.32;4.43;;;8.60;99.90;;;;;;5047785;28;20556;-82
2022/04/15 07:28:50;;;;;;;9.07;4.25;;;8.60;99.90;;;;;;5059301;28;20055;-82
2022/04/15 07:31:16;;;;;;;5.53;4.68;;;8.60;99.90;;;;;;5057483;28;20487;-82
2022/04/15 07:33:41;;;;;;;3.55;3.25;;;8.60;99.90;;;;;;5042896;28;20033;-82
2022/04/15 07:36:31;;;;;;;5.38;3.88;;;8.60;99.90;;;;;;5044245;28;20395;-83
2022/04/15 07:38:52;;;;;;;4.85;4.47;;;8.60;99.90;;;;;;5043894;28;20037;-82
2022/04/15 07:41:18;;;;;;;4.90;3.63;;;8.70;99.90;;;;;;5042886;28;20435;-82
2022/04/15 07:43:44;;;;;;;4.78;4.00;;;8.60;99.90;;;;;;5045938;28;20044;-82
2022/04/15 07:46:10;;;;;;;6.10;4.60;;;8.70;99.90;;;;;;5051317;28;20329;-82
2022/04/15 07:48:36;;;;;;;6.13;4.18;;;8.70;99.90;;;;;;5043960;28;20367;-83
2022/04/15 07:51:03;;;;;;;7.68;4.57;;;8.70;99.90;;;;;;5043636;28;20040;-82
2022/04/15 07:53:28;;;;;;;5.47;4.25;;;8.80;99.90;;;;;;5043572;28;20041;-82
2022/04/15 07:55:54;;;;;;;4.32;4.03;;;8.80;99.90;;;;;;5041211;28;20028;-86
2022/04/15 07:58:19;;;;;;;8.15;3.65;;;8.90;99.90;;;;;;5024629;28;20068;-85
2022/04/15 08:00:45;;;;;;;10.55;4.65;;;8.90;99.90;;;;;;5043213;28;20539;-85
2022/04/15 08:03:11;;;;;;;4.35;3.95;;;9.00;99.90;;;;;;5042998;28;20482;-85
2022/04/15 08:05:37;;;;;;;3.38;3.13;;;9.00;99.90;;;;;;5038321;28;20057;-86
2022/04/15 08:08:03;;;;;;;6.05;4.18;;;9.10;99.90;;;;;;5042887;28;20388;-86
2022/04/15 08:10:28;;;;;;;12.05;4.93;;;9.10;99.90;;;;;;5043325;28;20082;-85
2022/04/15 08:12:54;;;;;;;4.28;3.88;;;9.20;99.90;;;;;;5042817;28;20522;-86
2022/04/15 08:15:21;;;;;;;6.35;4.65;;;9.20;99.90;;;;;;5042673;28;20305;-85
2022/04/15 08:17:46;;;;;;;5.43;4.03;;;9.20;99.90;;;;;;5043682;28;20040;-86
2022/04/15 08:20:14;;;;;;;4.47;3.28;;;9.30;99.90;;;;;;5024700;28;20053;-85
2022/04/15 08:22:40;;;;;;;4.05;3.60;;;9.30;99.90;;;;;;5043359;28;20052;-85
2022/04/15 08:25:06;;;;;;;6.05;2.95;;;9.30;99.90;;;;;;5042126;28;20040;-85
2022/04/15 08:27:32;;;;;;;4.38;4.00;;;9.30;99.90;;;;;;5043074;28;20049;-86
2022/04/15 08:29:57;;;;;;;4.93;4.18;;;9.40;99.90;;;;;;5021271;28;20044;-86
2022/04/15 08:32:23;;;;;;;10.25;3.90;;;9.50;99.90;;;;;;5019851;28;20570;-86
2022/04/15 08:34:49;;;;;;;4.13;2.83;;;9.50;99.90;;;;;;5006878;28;20041;-87
2022/04/15 08:37:14;;;;;;;14.88;2.83;;;9.50;99.90;;;;;;5000412;28;20396;-88
2022/04/15 08:39:40;;;;;;;8.77;4.22;;;9.50;99.90;;;;;;5023584;28;20071;-87
2022/04/15 08:42:09;;;;;;;4.82;4.43;;;9.50;99.90;;;;;;5020691;28;20545;-88
2022/04/15 08:44:34;;;;;;;3.83;3.42;;;9.50;99.90;;;;;;5011257;28;20091;-87
2022/04/15 08:47:02;;;;;;;6.57;3.13;;;9.60;99.90;;;;;;5024654;28;20454;-87
2022/04/15 08:49:28;;;;;;;2.60;2.40;;;9.60;99.90;;;;;;5003283;28;20518;-87
2022/04/15 08:51:54;;;;;;;4.93;3.60;;;9.60;99.90;;;;;;5023444;28;20492;-84
2022/04/15 08:54:20;;;;;;;4.03;3.72;;;9.60;99.90;;;;;;5021085;28;20102;-84
2022/04/15 08:56:46;;;;;;;19.23;3.03;;;9.60;99.90;;;;;;5014562;28;20045;-83
2022/04/15 08:59:12;;;;;;;13.57;4.63;;;9.70;99.90;;;;;;5014657;28;20037;-82
2022/04/15 09:01:37;;;;;;;7.68;3.60;;;9.70;99.90;;;;;;5015538;28;20510;-83
2022/04/15 09:04:03;;;;;;;3.38;2.17;;;9.70;99.90;;;;;;4995206;28;20042;-83
2022/04/15 09:06:31;;;;;;;8.40;2.70;;;9.70;99.90;;;;;;5015514;28;20060;-84
2022/04/15 09:09:02;;;;;;;4.53;2.70;;;9.80;99.90;;;;;;5011653;28;20045;-84
2022/04/15 09:11:33;;;;;;;14.50;2.73;;;9.80;99.90;;;;;;5011646;28;20049;-84
2022/04/15 09:14:02;;;;;;;7.80;3.30;;;9.90;99.90;;;;;;5021461;28;20360;-84
2022/04/15 09:16:30;;;;;;;2.65;2.45;;;9.80;99.90;;;;;;5012399;28;20466;-84
2022/04/15 09:18:56;;;;;;;2.58;2.28;;;9.90;99.90;;;;;;5006727;28;20110;-83
2022/04/15 09:21:28;;;;;;;5.10;2.65;;;10.00;99.90;;;;;;5014765;28;20041;-83
2022/04/15 09:23:55;;;;;;;2.17;2.00;;;10.00;99.90;;;;;;5016473;28;20081;-83
2022/04/15 09:26:22;;;;;;;3.00;2.40;;;10.00;99.90;;;;;;5007489;28;20445;-82
2022/04/15 09:28:48;;;;;;;7.55;2.42;;;10.00;99.90;;;;;;4992064;28;20091;-83
2022/04/15 09:31:16;;;;;;;2.22;2.03;;;10.00;99.90;;;;;;5022026;28;20472;-85
2022/04/15 09:33:51;;;;;;;6.13;2.50;;;10.00;99.90;;;;;;5022916;28;20129;-84
2022/04/15 09:36:39;;;;;;;9.23;2.28;;;10.10;99.90;;;;;;5023451;28;20569;-86
2022/04/15 09:39:14;;;;;;;2.53;2.33;;;10.20;99.90;;;;;;5016979;28;20459;-84
2022/04/15 09:42:02;;;;;;;1.85;1.67;;;10.30;99.90;;;;;;4997663;28;20579;-85
2022/04/15 09:44:32;;;;;;;2.13;1.98;;;10.40;99.90;;;;;;5030047;28;20052;-84
2022/04/15 09:47:03;;;;;;;10.02;3.35;;;10.40;99.90;;;;;;5005966;28;20038;-85
2022/04/15 09:49:32;;;;;;;2.92;2.50;;;10.50;99.90;;;;;;5012703;28;20041;-85
2022/04/15 09:51:59;;;;;;;3.35;2.38;;;10.50;99.90;;;;;;5004710;28;20045;-84
2022/04/15 09:54:28;;;;;;;2.88;2.42;;;10.50;99.90;;;;;;5021130;28;20519;-83
2022/04/15 09:56:57;;;;;;;2.72;2.53;;;10.60;99.90;;;;;;5016742;28;20052;-86
2022/04/15 09:59:24;;;;;;;2.70;1.65;;;10.60;99.90;;;;;;5016597;28;20307;-85
2022/04/15 10:02:04;;;;;;;3.50;2.10;;;10.70;99.90;;;;;;5021492;28;20244;-85
2022/04/15 10:04:31;;;;;;;1.77;1.67;;;10.70;99.90;;;;;;5001777;28;20057;-86
2022/04/15 10:07:00;;;;;;;11.25;2.00;;;10.70;99.90;;;;;;4999722;28;20060;-83
2022/04/15 10:09:26;;;;;;;1.75;1.58;;;10.70;99.90;;;;;;4998650;28;20092;-84
2022/04/15 10:11:54;;;;;;;2.58;2.38;;;10.70;99.90;;;;;;5032189;28;20076;-84
2022/04/15 10:14:21;;;;;;;3.00;2.58;;;10.80;99.90;;;;;;5028990;28;20053;-84
2022/04/15 10:16:46;;;;;;;5.93;2.03;;;10.80;99.90;;;;;;5025563;28;20048;-84
2022/04/15 10:19:15;;;;;;;1.88;1.75;;;10.80;99.90;;;;;;5013614;28;20550;-85
2022/04/15 10:21:45;;;;;;;3.55;1.77;;;10.90;99.90;;;;;;5024042;28;20071;-84
2022/04/15 10:24:12;;;;;;;3.47;2.35;;;10.90;99.90;;;;;;5025234;28;20124;-84
2022/04/15 10:26:43;;;;;;;2.58;1.63;;;10.90;99.90;;;;;;5024782;28;20081;-84
2022/04/15 10:29:11;;;;;;;4.32;2.60;;;10.90;99.90;;;;;;5006140;28;20569;-84
2022/04/15 10:31:48;;;;;;;2.10;1.92;;;10.90;99.90;;;;;;5041575;28;20045;-84
2022/04/15 10:34:15;;;;;;;8.07;2.78;;;10.90;99.90;;;;;;4984676;28;20053;-84
2022/04/15 10:36:50;;;;;;;3.65;1.55;;;10.90;99.90;;;;;;5018712;28;20047;-84
2022/04/15 10:39:18;;;;;;;2.25;2.10;;;10.90;99.90;;;;;;5031784;28;20041;-84
2022/04/15 10:41:48;;;;;;;10.80;2.55;;;10.80;99.90;;;;;;4996393;28;20052;-84
2022/04/15 10:44:25;;;;;;;2.20;1.92;;;10.80;99.90;;;;;;5025921;28;20041;-84
2022/04/15 10:46:50;;;;;;;2.35;2.15;;;10.80;99.90;;;;;;5021851;28;20352;-84
2022/04/15 10:49:29;;;;;;;2.45;2.05;;;10.80;99.90;;;;;;5027486;28;20144;-82
2022/04/15 10:52:00;;;;;;;17.90;3.13;;;10.80;99.90;;;;;;5020423;28;20045;-82
2022/04/15 10:54:32;;;;;;;5.10;2.47;;;10.80;99.90;;;;;;5019933;28;20041;-82
2022/04/15 10:57:00;;;;;;;3.80;2.85;;;10.90;99.90;;;;;;5003075;28;20041;-82
2022/04/15 11:02:22;;;;;;;2.20;1.50;;;10.90;99.90;;;;;;5019606;28;20093;-81
2022/04/15 11:04:52;;;;;;;2.03;1.85;;;10.90;99.90;;;;;;5025010;28;20045;-82
2022/04/15 11:07:39;;;;;;;2.10;1.92;;;11.00;99.90;;;;;;5038384;28;20048;-82
2022/04/15 11:10:37;;;;;;;4.30;2.30;;;11.10;99.90;;;;;;5038719;28;20033;-82
2022/04/15 11:13:04;;;;;;;2.30;2.10;;;11.10;99.90;;;;;;5020137;28;20049;-82
2022/04/15 11:15:59;;;;;;;2.20;2.00;;;11.10;99.90;;;;;;5038692;28;20132;-82
2022/04/15 11:18:41;;;;;;;3.97;2.58;;;11.20;99.90;;;;;;5039643;28;20128;-82
2022/04/15 11:21:07;;;;;;;3.95;2.25;;;11.20;99.90;;;;;;5011842;28;20577;-82
2022/04/15 11:23:33;;;;;;;2.30;2.08;;;11.20;99.90;;;;;;5002566;28;20065;-83
2022/04/15 11:26:00;;;;;;;3.50;2.47;;;11.30;99.90;;;;;;5025724;28;20049;-82
2022/04/15 11:28:27;;;;;;;3.53;2.85;;;11.30;99.90;;;;;;5020999;28;20077;-82
2022/04/15 11:30:52;;;;;;;4.03;2.58;;;11.30;99.90;;;;;;5025139;28;20038;-81
2022/04/15 11:33:18;;;;;;;4.07;3.03;;;11.30;99.90;;;;;;5004911;28;20096;-81
2022/04/15 11:35:43;;;;;;;5.38;2.17;;;11.30;99.90;;;;;;5020508;28;20148;-82
2022/04/15 11:38:13;;;;;;;2.97;2.40;;;11.40;99.90;;;;;;5020446;28;20041;-81
2022/04/15 11:40:43;;;;;;;5.32;2.92;;;11.40;99.90;;;;;;5011251;28;20045;-82
2022/04/15 11:43:10;;;;;;;5.97;2.55;;;11.40;99.90;;;;;;5015196;28;20120;-81
2022/04/15 11:45:38;;;;;;;7.88;3.17;;;11.50;99.90;;;;;;5018434;28;20041;-83
2022/04/15 11:48:23;;;;;;;4.28;2.53;;;11.50;99.90;;;;;;5037614;28;20052;-82
2022/04/15 11:50:54;;;;;;;6.03;2.20;;;11.60;99.90;;;;;;5014351;28;20069;-81
2022/04/15 11:53:21;;;;;;;5.00;2.95;;;11.60;99.90;;;;;;5020854;28;20042;-81
2022/04/15 11:55:50;;;;;;;2.85;1.80;;;11.60;99.90;;;;;;5008773;28;20131;-81
2022/04/15 11:58:17;;;;;;;3.63;2.22;;;11.70;99.90;;;;;;5025013;28;20055;-82
2022/04/15 12:00:49;;;;;;;2.20;2.00;;;11.70;99.90;;;;;;5017705;28;20084;-90
2022/04/15 12:03:14;;;;;;;2.08;1.70;;;11.70;99.90;;;;;;4995992;28;20051;-82
2022/04/15 12:05:40;;;;;;;3.35;2.17;;;11.60;99.90;;;;;;5010239;28;20648;-85
2022/04/15 12:08:08;;;;;;;1.98;1.88;;;11.60;99.90;;;;;;5012713;28;20048;-84
2022/04/15 12:10:38;;;;;;;2.55;2.33;;;11.60;99.90;;;;;;5010417;28;20508;-82
2022/04/15 12:13:05;;;;;;;2.28;2.00;;;11.60;99.90;;;;;;5027520;28;20048;-84
2022/04/15 12:15:32;;;;;;;2.97;1.98;;;11.60;99.90;;;;;;5038075;28;20041;-81
2022/04/15 12:17:58;;;;;;;4.32;1.98;;;11.60;99.90;;;;;;5028745;28;20067;-85
2022/04/15 12:20:24;;;;;;;3.33;2.03;;;11.60;99.90;;;;;;5037229;28;20053;-84
2022/04/15 12:22:50;;;;;;;2.90;1.63;;;11.70;99.90;;;;;;5025585;28;20124;-83
2022/04/15 12:25:19;;;;;;;7.10;3.45;;;11.60;99.90;;;;;;5040378;28;20041;-83
2022/04/15 12:27:46;;;;;;;3.42;2.88;;;11.60;99.90;;;;;;5042655;28;20057;-82
2022/04/15 12:30:12;;;;;;;2.80;2.47;;;11.60;99.90;;;;;;5042900;28;20079;-83
2022/04/15 12:32:39;;;;;;;2.50;2.30;;;11.60;99.90;;;;;;5042537;28;20045;-83
2022/04/15 12:35:11;;;;;;;4.90;1.70;;;11.60;99.90;;;;;;5042115;28;20506;-83
2022/04/15 12:37:49;;;;;;;4.13;1.90;;;11.60;99.90;;;;;;5043229;28;20041;-83
2022/04/15 12:40:14;;;;;;;2.15;1.63;;;11.60;99.90;;;;;;5040217;28;20076;-83
2022/04/15 12:42:42;;;;;;;4.57;3.28;;;11.70;99.90;;;;;;5043092;28;20435;-82
2022/04/15 12:45:15;;;;;;;2.60;2.40;;;11.70;99.90;;;;;;5037383;28;20042;-83
2022/04/15 12:47:41;;;;;;;3.25;2.95;;;11.80;99.90;;;;;;5022949;28;20037;-83
2022/04/15 12:50:29;;;;;;;2.78;2.05;;;11.80;99.90;;;;;;5021712;28;20128;-83
2022/04/15 12:52:56;;;;;;;2.47;2.25;;;11.80;99.90;;;;;;5038089;28;20499;-83
2022/04/15 12:55:32;;;;;;;2.83;2.38;;;11.80;99.90;;;;;;5021807;28;20038;-83